sensor_id;sensor_type;location;lat;lon;timestamp;P1;durP1;ratioP1;P2;durP2;ratioP2
30553;SDS011;17335;50.720;7.452;2023-02-15T00:01:34;44.92;;;16.13;;
30553;SDS011;17335;50.720;7.452;2023-02-15T00:04:02;58.35;;;16.48;;
30553;SDS011;17335;50.720;7.452;2023-02-15T00:06:30;52.05;;;18.13;;
30553;SDS011;17335;50.720;7.452;2023-02-15T00:08:57;47.22;;;15.77;;
30553;SDS011;17335;50.720;7.452;2023-02-15T00:11:24;52.47;;;19.27;;
30553;SDS011;17335;50.720;7.452;2023-02-15T00:14:07;55.00;;;17.58;;
30553;SDS011;17335;50.720;7.452;2023-02-15T00:16:39;48.83;;;17.55;;
30553;SDS011;17335;50.720;7.452;2023-02-15T00:19:08;51.03;;;18.15;;
30553;SDS011;17335;50.720;7.452;2023-02-15T00:21:36;45.53;;;14.63;;
30553;SDS011;17335;50.720;7.452;2023-02-15T00:24:05;46.03;;;17.08;;
30553;SDS011;17335;50.720;7.452;2023-02-15T00:26:33;54.55;;;17.63;;
30553;SDS011;17335;50.720;7.452;2023-02-15T00:29:00;50.83;;;16.90;;
30553;SDS011;17335;50.720;7.452;2023-02-15T00:31:27;51.75;;;17.00;;
30553;SDS011;17335;50.720;7.452;2023-02-15T00:34:07;49.83;;;15.38;;
30553;SDS011;17335;50.720;7.452;2023-02-15T00:36:38;44.42;;;15.93;;
30553;SDS011;17335;50.720;7.452;2023-02-15T00:39:05;42.30;;;15.80;;
30553;SDS011;17335;50.720;7.452;2023-02-15T00:41:32;53.10;;;15.85;;
30553;SDS011;17335;50.720;7.452;2023-02-15T00:43:59;50.92;;;15.05;;
30553;SDS011;17335;50.720;7.452;2023-02-15T00:46:26;47.38;;;14.80;;
30553;SDS011;17335;50.720;7.452;2023-02-15T00:48:53;44.40;;;15.90;;
30553;SDS011;17335;50.720;7.452;2023-02-15T00:51:19;41.00;;;15.07;;
30553;SDS011;17335;50.720;7.452;2023-02-15T00:53:46;51.58;;;16.05;;
30553;SDS011;17335;50.720;7.452;2023-02-15T00:56:13;47.85;;;15.80;;
30553;SDS011;17335;50.720;7.452;2023-02-15T00:58:40;48.47;;;15.90;;
30553;SDS011;17335;50.720;7.452;2023-02-15T01:01:10;48.28;;;16.27;;
30553;SDS011;17335;50.720;7.452;2023-02-15T01:03:42;52.60;;;15.60;;
30553;SDS011;17335;50.720;7.452;2023-02-15T01:06:09;53.03;;;15.93;;
30553;SDS011;17335;50.720;7.452;2023-02-15T01:08:37;45.85;;;15.80;;
30553;SDS011;17335;50.720;7.452;2023-02-15T01:11:05;46.22;;;16.23;;
30553;SDS011;17335;50.720;7.452;2023-02-15T01:13:34;47.13;;;16.35;;
30553;SDS011;17335;50.720;7.452;2023-02-15T01:16:01;47.60;;;16.20;;
30553;SDS011;17335;50.720;7.452;2023-02-15T01:18:30;51.85;;;15.68;;
30553;SDS011;17335;50.720;7.452;2023-02-15T01:20:57;48.28;;;16.23;;
30553;SDS011;17335;50.720;7.452;2023-02-15T01:23:24;48.10;;;16.52;;
30553;SDS011;17335;50.720;7.452;2023-02-15T01:25:50;40.92;;;13.73;;
30553;SDS011;17335;50.720;7.452;2023-02-15T01:28:17;46.70;;;14.07;;
30553;SDS011;17335;50.720;7.452;2023-02-15T01:30:44;42.83;;;14.63;;
30553;SDS011;17335;50.720;7.452;2023-02-15T01:33:11;41.03;;;14.85;;
30553;SDS011;17335;50.720;7.452;2023-02-15T01:35:46;48.85;;;14.73;;
30553;SDS011;17335;50.720;7.452;2023-02-15T01:38:13;41.78;;;15.05;;
30553;SDS011;17335;50.720;7.452;2023-02-15T01:40:40;44.90;;;14.98;;
30553;SDS011;17335;50.720;7.452;2023-02-15T01:43:10;42.20;;;14.15;;
30553;SDS011;17335;50.720;7.452;2023-02-15T01:45:38;40.38;;;13.65;;
30553;SDS011;17335;50.720;7.452;2023-02-15T01:50:48;43.22;;;14.07;;
30553;SDS011;17335;50.720;7.452;2023-02-15T01:56:08;51.75;;;14.25;;
30553;SDS011;17335;50.720;7.452;2023-02-15T01:58:41;42.90;;;15.10;;
30553;SDS011;17335;50.720;7.452;2023-02-15T02:01:09;46.28;;;14.30;;
30553;SDS011;17335;50.720;7.452;2023-02-15T02:03:39;40.55;;;13.40;;
30553;SDS011;17335;50.720;7.452;2023-02-15T02:06:14;42.10;;;13.93;;
30553;SDS011;17335;50.720;7.452;2023-02-15T02:08:41;41.17;;;13.45;;
30553;SDS011;17335;50.720;7.452;2023-02-15T02:11:09;38.33;;;13.70;;
30553;SDS011;17335;50.720;7.452;2023-02-15T02:13:41;44.42;;;14.40;;
30553;SDS011;17335;50.720;7.452;2023-02-15T02:16:11;43.05;;;14.63;;
30553;SDS011;17335;50.720;7.452;2023-02-15T02:25:11;40.92;;;13.13;;
30553;SDS011;17335;50.720;7.452;2023-02-15T02:27:39;46.90;;;14.80;;
30553;SDS011;17335;50.720;7.452;2023-02-15T02:30:23;47.30;;;13.70;;
30553;SDS011;17335;50.720;7.452;2023-02-15T02:33:27;41.45;;;13.98;;
30553;SDS011;17335;50.720;7.452;2023-02-15T02:41:42;43.83;;;15.60;;
30553;SDS011;17335;50.720;7.452;2023-02-15T02:44:44;45.45;;;14.52;;
30553;SDS011;17335;50.720;7.452;2023-02-15T02:49:52;43.47;;;14.27;;
30553;SDS011;17335;50.720;7.452;2023-02-15T02:52:40;43.72;;;14.77;;
30553;SDS011;17335;50.720;7.452;2023-02-15T02:55:16;40.33;;;13.50;;
30553;SDS011;17335;50.720;7.452;2023-02-15T02:57:53;36.15;;;12.60;;
30553;SDS011;17335;50.720;7.452;2023-02-15T03:00:24;42.00;;;14.65;;
30553;SDS011;17335;50.720;7.452;2023-02-15T03:02:56;40.83;;;12.85;;
30553;SDS011;17335;50.720;7.452;2023-02-15T03:05:31;34.50;;;12.68;;
30553;SDS011;17335;50.720;7.452;2023-02-15T03:08:00;47.05;;;14.82;;
30553;SDS011;17335;50.720;7.452;2023-02-15T03:10:32;42.17;;;15.00;;
30553;SDS011;17335;50.720;7.452;2023-02-15T03:13:01;40.38;;;13.63;;
30553;SDS011;17335;50.720;7.452;2023-02-15T03:15:34;44.78;;;13.93;;
30553;SDS011;17335;50.720;7.452;2023-02-15T03:18:24;41.42;;;13.57;;
30553;SDS011;17335;50.720;7.452;2023-02-15T03:20:56;38.47;;;13.65;;
30553;SDS011;17335;50.720;7.452;2023-02-15T03:23:27;40.83;;;13.65;;
30553;SDS011;17335;50.720;7.452;2023-02-15T03:26:00;39.47;;;13.60;;
30553;SDS011;17335;50.720;7.452;2023-02-15T03:28:34;42.08;;;13.73;;
30553;SDS011;17335;50.720;7.452;2023-02-15T03:31:04;42.90;;;14.82;;
30553;SDS011;17335;50.720;7.452;2023-02-15T03:33:34;34.78;;;12.38;;
30553;SDS011;17335;50.720;7.452;2023-02-15T03:38:54;38.28;;;12.63;;
30553;SDS011;17335;50.720;7.452;2023-02-15T03:41:31;34.58;;;12.27;;
30553;SDS011;17335;50.720;7.452;2023-02-15T03:44:03;46.45;;;14.43;;
30553;SDS011;17335;50.720;7.452;2023-02-15T03:46:45;36.38;;;13.52;;
30553;SDS011;17335;50.720;7.452;2023-02-15T03:49:24;37.47;;;14.15;;
30553;SDS011;17335;50.720;7.452;2023-02-15T03:51:54;36.50;;;12.38;;
30553;SDS011;17335;50.720;7.452;2023-02-15T03:54:25;37.15;;;12.25;;
30553;SDS011;17335;50.720;7.452;2023-02-15T03:57:13;42.53;;;13.02;;
30553;SDS011;17335;50.720;7.452;2023-02-15T04:00:00;34.42;;;13.05;;
30553;SDS011;17335;50.720;7.452;2023-02-15T04:05:17;39.60;;;13.77;;
30553;SDS011;17335;50.720;7.452;2023-02-15T04:07:44;36.58;;;12.18;;
30553;SDS011;17335;50.720;7.452;2023-02-15T04:10:10;32.30;;;11.73;;
30553;SDS011;17335;50.720;7.452;2023-02-15T04:15:22;35.75;;;11.90;;
30553;SDS011;17335;50.720;7.452;2023-02-15T04:18:07;41.97;;;13.30;;
30553;SDS011;17335;50.720;7.452;2023-02-15T04:20:34;38.13;;;12.95;;
30553;SDS011;17335;50.720;7.452;2023-02-15T04:26:05;30.13;;;12.23;;
30553;SDS011;17335;50.720;7.452;2023-02-15T04:28:32;41.05;;;13.93;;
30553;SDS011;17335;50.720;7.452;2023-02-15T04:30:59;31.83;;;14.20;;
30553;SDS011;17335;50.720;7.452;2023-02-15T04:33:25;36.53;;;12.73;;
30553;SDS011;17335;50.720;7.452;2023-02-15T04:35:52;38.97;;;13.63;;
30553;SDS011;17335;50.720;7.452;2023-02-15T04:38:19;32.13;;;11.93;;
30553;SDS011;17335;50.720;7.452;2023-02-15T04:40:49;39.13;;;13.05;;
30553;SDS011;17335;50.720;7.452;2023-02-15T04:43:16;39.10;;;13.32;;
30553;SDS011;17335;50.720;7.452;2023-02-15T04:45:47;40.17;;;13.18;;
30553;SDS011;17335;50.720;7.452;2023-02-15T04:48:17;32.63;;;12.77;;
30553;SDS011;17335;50.720;7.452;2023-02-15T04:50:44;37.53;;;14.00;;
30553;SDS011;17335;50.720;7.452;2023-02-15T04:53:11;31.20;;;11.70;;
30553;SDS011;17335;50.720;7.452;2023-02-15T04:55:37;36.00;;;12.30;;
30553;SDS011;17335;50.720;7.452;2023-02-15T04:58:04;40.90;;;14.18;;
30553;SDS011;17335;50.720;7.452;2023-02-15T05:00:31;31.83;;;11.82;;
30553;SDS011;17335;50.720;7.452;2023-02-15T05:02:58;35.90;;;12.52;;
30553;SDS011;17335;50.720;7.452;2023-02-15T05:05:24;28.45;;;10.60;;
30553;SDS011;17335;50.720;7.452;2023-02-15T05:07:51;31.38;;;11.57;;
30553;SDS011;17335;50.720;7.452;2023-02-15T05:10:17;36.47;;;12.20;;
30553;SDS011;17335;50.720;7.452;2023-02-15T05:12:44;35.78;;;12.40;;
30553;SDS011;17335;50.720;7.452;2023-02-15T05:15:11;36.33;;;11.35;;
30553;SDS011;17335;50.720;7.452;2023-02-15T05:17:39;32.15;;;11.63;;
30553;SDS011;17335;50.720;7.452;2023-02-15T05:20:05;34.33;;;14.10;;
30553;SDS011;17335;50.720;7.452;2023-02-15T05:22:32;36.35;;;12.70;;
30553;SDS011;17335;50.720;7.452;2023-02-15T05:24:59;35.70;;;12.90;;
30553;SDS011;17335;50.720;7.452;2023-02-15T05:27:44;33.85;;;11.40;;
30553;SDS011;17335;50.720;7.452;2023-02-15T05:30:30;32.58;;;12.05;;
30553;SDS011;17335;50.720;7.452;2023-02-15T05:32:57;27.55;;;10.88;;
30553;SDS011;17335;50.720;7.452;2023-02-15T05:35:24;37.92;;;11.88;;
30553;SDS011;17335;50.720;7.452;2023-02-15T05:37:51;32.40;;;11.23;;
30553;SDS011;17335;50.720;7.452;2023-02-15T05:40:17;34.20;;;11.95;;
30553;SDS011;17335;50.720;7.452;2023-02-15T05:42:44;28.77;;;10.73;;
30553;SDS011;17335;50.720;7.452;2023-02-15T05:45:11;33.33;;;11.68;;
30553;SDS011;17335;50.720;7.452;2023-02-15T05:47:37;33.25;;;11.48;;
30553;SDS011;17335;50.720;7.452;2023-02-15T05:50:04;30.33;;;12.15;;
30553;SDS011;17335;50.720;7.452;2023-02-15T05:52:31;31.35;;;10.27;;
30553;SDS011;17335;50.720;7.452;2023-02-15T05:54:57;34.42;;;11.85;;
30553;SDS011;17335;50.720;7.452;2023-02-15T05:57:26;34.65;;;11.80;;
30553;SDS011;17335;50.720;7.452;2023-02-15T05:59:53;29.10;;;12.55;;
30553;SDS011;17335;50.720;7.452;2023-02-15T06:02:19;32.03;;;11.18;;
30553;SDS011;17335;50.720;7.452;2023-02-15T06:04:46;34.67;;;12.70;;
30553;SDS011;17335;50.720;7.452;2023-02-15T06:07:13;38.95;;;12.95;;
30553;SDS011;17335;50.720;7.452;2023-02-15T06:09:40;34.50;;;11.80;;
30553;SDS011;17335;50.720;7.452;2023-02-15T06:12:06;29.35;;;10.73;;
30553;SDS011;17335;50.720;7.452;2023-02-15T06:14:33;33.55;;;12.57;;
30553;SDS011;17335;50.720;7.452;2023-02-15T06:16:59;29.15;;;11.30;;
30553;SDS011;17335;50.720;7.452;2023-02-15T06:19:26;31.70;;;12.55;;
30553;SDS011;17335;50.720;7.452;2023-02-15T06:21:52;27.95;;;10.82;;
30553;SDS011;17335;50.720;7.452;2023-02-15T06:24:19;34.58;;;11.90;;
30553;SDS011;17335;50.720;7.452;2023-02-15T06:26:46;31.27;;;10.93;;
30553;SDS011;17335;50.720;7.452;2023-02-15T06:29:12;37.50;;;12.75;;
30553;SDS011;17335;50.720;7.452;2023-02-15T06:31:39;25.45;;;10.75;;
30553;SDS011;17335;50.720;7.452;2023-02-15T06:34:06;41.53;;;16.50;;
30553;SDS011;17335;50.720;7.452;2023-02-15T06:36:32;36.67;;;12.63;;
30553;SDS011;17335;50.720;7.452;2023-02-15T06:38:59;38.72;;;13.38;;
30553;SDS011;17335;50.720;7.452;2023-02-15T06:41:26;36.55;;;11.23;;
30553;SDS011;17335;50.720;7.452;2023-02-15T06:43:52;28.13;;;10.70;;
30553;SDS011;17335;50.720;7.452;2023-02-15T06:46:19;31.27;;;11.77;;
30553;SDS011;17335;50.720;7.452;2023-02-15T06:48:46;36.33;;;11.95;;
30553;SDS011;17335;50.720;7.452;2023-02-15T06:51:13;28.52;;;10.90;;
30553;SDS011;17335;50.720;7.452;2023-02-15T06:53:40;27.40;;;11.27;;
30553;SDS011;17335;50.720;7.452;2023-02-15T06:56:09;27.98;;;10.65;;
30553;SDS011;17335;50.720;7.452;2023-02-15T06:58:37;33.00;;;10.68;;
30553;SDS011;17335;50.720;7.452;2023-02-15T07:01:04;29.25;;;12.20;;
30553;SDS011;17335;50.720;7.452;2023-02-15T07:03:32;31.83;;;10.88;;
30553;SDS011;17335;50.720;7.452;2023-02-15T07:06:00;28.38;;;10.75;;
30553;SDS011;17335;50.720;7.452;2023-02-15T07:08:28;33.15;;;11.55;;
30553;SDS011;17335;50.720;7.452;2023-02-15T07:10:55;28.00;;;10.52;;
30553;SDS011;17335;50.720;7.452;2023-02-15T07:13:42;36.08;;;11.68;;
30553;SDS011;17335;50.720;7.452;2023-02-15T07:16:09;31.67;;;11.85;;
30553;SDS011;17335;50.720;7.452;2023-02-15T07:18:36;30.73;;;10.88;;
30553;SDS011;17335;50.720;7.452;2023-02-15T07:21:02;30.52;;;9.88;;
30553;SDS011;17335;50.720;7.452;2023-02-15T07:23:29;27.30;;;10.52;;
30553;SDS011;17335;50.720;7.452;2023-02-15T07:25:56;32.95;;;11.80;;
30553;SDS011;17335;50.720;7.452;2023-02-15T07:28:27;32.78;;;11.10;;
30553;SDS011;17335;50.720;7.452;2023-02-15T07:30:54;29.83;;;11.57;;
30553;SDS011;17335;50.720;7.452;2023-02-15T07:33:21;25.05;;;11.38;;
30553;SDS011;17335;50.720;7.452;2023-02-15T07:35:51;29.52;;;10.48;;
30553;SDS011;17335;50.720;7.452;2023-02-15T07:38:20;33.60;;;10.93;;
30553;SDS011;17335;50.720;7.452;2023-02-15T07:40:47;29.08;;;11.55;;
30553;SDS011;17335;50.720;7.452;2023-02-15T07:43:13;26.77;;;9.95;;
30553;SDS011;17335;50.720;7.452;2023-02-15T07:45:40;32.97;;;10.85;;
30553;SDS011;17335;50.720;7.452;2023-02-15T07:48:07;33.28;;;12.35;;
30553;SDS011;17335;50.720;7.452;2023-02-15T07:50:34;31.80;;;11.32;;
30553;SDS011;17335;50.720;7.452;2023-02-15T07:53:01;32.38;;;11.13;;
30553;SDS011;17335;50.720;7.452;2023-02-15T07:55:28;31.25;;;12.10;;
30553;SDS011;17335;50.720;7.452;2023-02-15T07:57:55;31.58;;;12.20;;
30553;SDS011;17335;50.720;7.452;2023-02-15T08:00:22;30.10;;;10.40;;
30553;SDS011;17335;50.720;7.452;2023-02-15T08:02:51;34.35;;;12.20;;
30553;SDS011;17335;50.720;7.452;2023-02-15T08:05:41;33.78;;;11.32;;
30553;SDS011;17335;50.720;7.452;2023-02-15T08:08:09;29.15;;;11.38;;
30553;SDS011;17335;50.720;7.452;2023-02-15T08:16:29;28.98;;;11.88;;
30553;SDS011;17335;50.720;7.452;2023-02-15T08:18:59;31.92;;;11.98;;
30553;SDS011;17335;50.720;7.452;2023-02-15T08:21:35;36.80;;;12.25;;
30553;SDS011;17335;50.720;7.452;2023-02-15T08:24:03;32.33;;;12.15;;
30553;SDS011;17335;50.720;7.452;2023-02-15T08:26:30;31.83;;;11.77;;
30553;SDS011;17335;50.720;7.452;2023-02-15T08:28:57;32.95;;;13.23;;
30553;SDS011;17335;50.720;7.452;2023-02-15T08:31:24;33.00;;;13.55;;
30553;SDS011;17335;50.720;7.452;2023-02-15T08:33:53;36.08;;;13.00;;
30553;SDS011;17335;50.720;7.452;2023-02-15T08:36:22;31.52;;;12.45;;
30553;SDS011;17335;50.720;7.452;2023-02-15T08:38:50;33.85;;;12.57;;
30553;SDS011;17335;50.720;7.452;2023-02-15T08:41:24;28.00;;;12.30;;
30553;SDS011;17335;50.720;7.452;2023-02-15T08:43:53;32.50;;;12.25;;
30553;SDS011;17335;50.720;7.452;2023-02-15T08:46:21;35.40;;;12.57;;
30553;SDS011;17335;50.720;7.452;2023-02-15T08:48:49;41.83;;;13.23;;
30553;SDS011;17335;50.720;7.452;2023-02-15T08:51:18;32.70;;;12.07;;
30553;SDS011;17335;50.720;7.452;2023-02-15T08:53:50;29.85;;;12.20;;
30553;SDS011;17335;50.720;7.452;2023-02-15T08:56:19;35.72;;;12.70;;
30553;SDS011;17335;50.720;7.452;2023-02-15T08:58:48;32.67;;;13.13;;
30553;SDS011;17335;50.720;7.452;2023-02-15T09:01:19;31.27;;;12.77;;
30553;SDS011;17335;50.720;7.452;2023-02-15T09:03:49;34.65;;;12.38;;
30553;SDS011;17335;50.720;7.452;2023-02-15T09:06:20;32.90;;;12.63;;
30553;SDS011;17335;50.720;7.452;2023-02-15T09:08:47;27.92;;;11.95;;
30553;SDS011;17335;50.720;7.452;2023-02-15T09:11:15;34.22;;;13.38;;
30553;SDS011;17335;50.720;7.452;2023-02-15T09:13:58;33.33;;;13.60;;
30553;SDS011;17335;50.720;7.452;2023-02-15T09:16:27;33.28;;;12.32;;
30553;SDS011;17335;50.720;7.452;2023-02-15T09:18:56;34.63;;;13.20;;
30553;SDS011;17335;50.720;7.452;2023-02-15T09:21:24;32.25;;;12.73;;
30553;SDS011;17335;50.720;7.452;2023-02-15T09:23:55;35.42;;;13.30;;
30553;SDS011;17335;50.720;7.452;2023-02-15T09:26:26;37.33;;;11.85;;
30553;SDS011;17335;50.720;7.452;2023-02-15T09:28:56;30.80;;;12.20;;
30553;SDS011;17335;50.720;7.452;2023-02-15T09:31:25;37.78;;;14.30;;
30553;SDS011;17335;50.720;7.452;2023-02-15T09:34:00;34.50;;;12.88;;
30553;SDS011;17335;50.720;7.452;2023-02-15T09:36:32;38.30;;;14.05;;
30553;SDS011;17335;50.720;7.452;2023-02-15T09:39:09;26.97;;;11.43;;
30553;SDS011;17335;50.720;7.452;2023-02-15T09:41:46;33.40;;;12.70;;
30553;SDS011;17335;50.720;7.452;2023-02-15T09:52:48;42.10;;;15.10;;
30553;SDS011;17335;50.720;7.452;2023-02-15T10:01:30;36.42;;;14.15;;
30553;SDS011;17335;50.720;7.452;2023-02-15T10:06:36;41.13;;;15.02;;
30553;SDS011;17335;50.720;7.452;2023-02-15T10:20:15;36.78;;;14.82;;
30553;SDS011;17335;50.720;7.452;2023-02-15T10:28:17;36.03;;;13.35;;
30553;SDS011;17335;50.720;7.452;2023-02-15T10:30:47;33.25;;;12.93;;
30553;SDS011;17335;50.720;7.452;2023-02-15T10:33:39;41.28;;;15.73;;
30553;SDS011;17335;50.720;7.452;2023-02-15T10:39:23;34.53;;;13.10;;
30553;SDS011;17335;50.720;7.452;2023-02-15T10:41:56;38.47;;;14.63;;
30553;SDS011;17335;50.720;7.452;2023-02-15T10:47:41;35.95;;;14.07;;
30553;SDS011;17335;50.720;7.452;2023-02-15T10:50:15;38.25;;;13.73;;
30553;SDS011;17335;50.720;7.452;2023-02-15T11:01:00;35.83;;;14.18;;
30553;SDS011;17335;50.720;7.452;2023-02-15T11:04:08;27.13;;;12.02;;
30553;SDS011;17335;50.720;7.452;2023-02-15T11:06:56;26.23;;;10.65;;
30553;SDS011;17335;50.720;7.452;2023-02-15T11:09:29;28.92;;;11.68;;
30553;SDS011;17335;50.720;7.452;2023-02-15T11:12:03;32.38;;;12.45;;
30553;SDS011;17335;50.720;7.452;2023-02-15T11:14:39;30.98;;;12.75;;
30553;SDS011;17335;50.720;7.452;2023-02-15T11:17:22;30.98;;;12.75;;
30553;SDS011;17335;50.720;7.452;2023-02-15T11:19:59;31.58;;;12.40;;
30553;SDS011;17335;50.720;7.452;2023-02-15T11:22:34;33.72;;;12.85;;
30553;SDS011;17335;50.720;7.452;2023-02-15T11:25:01;28.10;;;12.52;;
30553;SDS011;17335;50.720;7.452;2023-02-15T11:27:40;31.35;;;12.77;;
30553;SDS011;17335;50.720;7.452;2023-02-15T11:30:18;31.98;;;12.88;;
30553;SDS011;17335;50.720;7.452;2023-02-15T11:32:48;31.15;;;13.15;;
30553;SDS011;17335;50.720;7.452;2023-02-15T11:46:07;31.35;;;12.73;;
30553;SDS011;17335;50.720;7.452;2023-02-15T11:48:37;32.97;;;12.82;;
30553;SDS011;17335;50.720;7.452;2023-02-15T11:51:05;31.20;;;13.20;;
30553;SDS011;17335;50.720;7.452;2023-02-15T11:53:32;30.85;;;11.85;;
30553;SDS011;17335;50.720;7.452;2023-02-15T11:56:02;33.78;;;13.50;;
30553;SDS011;17335;50.720;7.452;2023-02-15T11:58:33;28.77;;;12.38;;
30553;SDS011;17335;50.720;7.452;2023-02-15T12:03:54;26.00;;;11.50;;
30553;SDS011;17335;50.720;7.452;2023-02-15T12:06:27;28.10;;;11.32;;
30553;SDS011;17335;50.720;7.452;2023-02-15T12:09:04;29.65;;;12.05;;
30553;SDS011;17335;50.720;7.452;2023-02-15T12:11:40;29.30;;;11.50;;
30553;SDS011;17335;50.720;7.452;2023-02-15T12:14:09;28.38;;;12.23;;
30553;SDS011;17335;50.720;7.452;2023-02-15T12:16:50;32.78;;;13.80;;
30553;SDS011;17335;50.720;7.452;2023-02-15T12:22:02;30.15;;;11.77;;
30553;SDS011;17335;50.720;7.452;2023-02-15T12:24:32;28.58;;;12.35;;
30553;SDS011;17335;50.720;7.452;2023-02-15T12:27:04;29.73;;;11.45;;
30553;SDS011;17335;50.720;7.452;2023-02-15T12:29:39;31.33;;;12.00;;
30553;SDS011;17335;50.720;7.452;2023-02-15T12:32:09;27.65;;;11.38;;
30553;SDS011;17335;50.720;7.452;2023-02-15T12:34:42;25.50;;;11.32;;
30553;SDS011;17335;50.720;7.452;2023-02-15T12:37:14;27.75;;;11.63;;
30553;SDS011;17335;50.720;7.452;2023-02-15T12:39:56;27.77;;;11.55;;
30553;SDS011;17335;50.720;7.452;2023-02-15T12:42:26;27.73;;;11.70;;
30553;SDS011;17335;50.720;7.452;2023-02-15T12:48:13;27.65;;;11.60;;
30553;SDS011;17335;50.720;7.452;2023-02-15T12:50:43;28.83;;;12.35;;
30553;SDS011;17335;50.720;7.452;2023-02-15T12:55:58;24.90;;;10.80;;
30553;SDS011;17335;50.720;7.452;2023-02-15T12:58:30;28.13;;;11.95;;
30553;SDS011;17335;50.720;7.452;2023-02-15T13:01:02;27.90;;;12.00;;
30553;SDS011;17335;50.720;7.452;2023-02-15T13:03:35;29.55;;;12.32;;
30553;SDS011;17335;50.720;7.452;2023-02-15T13:06:05;30.67;;;11.93;;
30553;SDS011;17335;50.720;7.452;2023-02-15T13:08:34;29.30;;;11.75;;
30553;SDS011;17335;50.720;7.452;2023-02-15T13:11:09;30.20;;;12.20;;
30553;SDS011;17335;50.720;7.452;2023-02-15T13:13:54;31.83;;;12.18;;
30553;SDS011;17335;50.720;7.452;2023-02-15T13:16:31;25.98;;;11.65;;
30553;SDS011;17335;50.720;7.452;2023-02-15T13:19:05;27.20;;;11.98;;
30553;SDS011;17335;50.720;7.452;2023-02-15T13:21:40;29.55;;;13.25;;
30553;SDS011;17335;50.720;7.452;2023-02-15T13:27:32;28.52;;;11.30;;
30553;SDS011;17335;50.720;7.452;2023-02-15T13:32:40;28.85;;;10.77;;
30553;SDS011;17335;50.720;7.452;2023-02-15T13:35:15;29.52;;;11.88;;
30553;SDS011;17335;50.720;7.452;2023-02-15T13:40:41;27.98;;;10.90;;
30553;SDS011;17335;50.720;7.452;2023-02-15T13:43:24;30.58;;;12.73;;
30553;SDS011;17335;50.720;7.452;2023-02-15T13:46:19;29.27;;;12.25;;
30553;SDS011;17335;50.720;7.452;2023-02-15T13:58:12;26.10;;;11.73;;
30553;SDS011;17335;50.720;7.452;2023-02-15T14:16:54;26.52;;;11.95;;
30553;SDS011;17335;50.720;7.452;2023-02-15T14:19:38;24.13;;;10.82;;
30553;SDS011;17335;50.720;7.452;2023-02-15T14:24:44;22.65;;;11.57;;
30553;SDS011;17335;50.720;7.452;2023-02-15T14:30:28;26.17;;;11.15;;
30553;SDS011;17335;50.720;7.452;2023-02-15T14:35:43;25.90;;;11.68;;
30553;SDS011;17335;50.720;7.452;2023-02-15T14:48:57;22.98;;;11.40;;
30553;SDS011;17335;50.720;7.452;2023-02-15T14:54:11;22.80;;;11.52;;
30553;SDS011;17335;50.720;7.452;2023-02-15T15:07:23;26.25;;;11.55;;
30553;SDS011;17335;50.720;7.452;2023-02-15T15:12:52;23.17;;;12.63;;
30553;SDS011;17335;50.720;7.452;2023-02-15T15:20:41;31.00;;;12.98;;
30553;SDS011;17335;50.720;7.452;2023-02-15T15:25:57;31.13;;;13.30;;
30553;SDS011;17335;50.720;7.452;2023-02-15T15:36:55;28.83;;;13.15;;
30553;SDS011;17335;50.720;7.452;2023-02-15T15:48:23;28.13;;;12.80;;
30553;SDS011;17335;50.720;7.452;2023-02-15T15:51:20;30.55;;;13.88;;
30553;SDS011;17335;50.720;7.452;2023-02-15T15:53:52;30.67;;;13.20;;
30553;SDS011;17335;50.720;7.452;2023-02-15T15:56:21;34.28;;;15.20;;
30553;SDS011;17335;50.720;7.452;2023-02-15T15:58:54;33.22;;;14.10;;
30553;SDS011;17335;50.720;7.452;2023-02-15T16:01:24;34.03;;;13.50;;
30553;SDS011;17335;50.720;7.452;2023-02-15T16:03:54;28.63;;;12.95;;
30553;SDS011;17335;50.720;7.452;2023-02-15T16:06:34;33.42;;;13.18;;
30553;SDS011;17335;50.720;7.452;2023-02-15T16:09:09;28.33;;;12.40;;
30553;SDS011;17335;50.720;7.452;2023-02-15T16:11:50;31.45;;;13.10;;
30553;SDS011;17335;50.720;7.452;2023-02-15T16:14:52;27.92;;;12.90;;
30553;SDS011;17335;50.720;7.452;2023-02-15T16:17:17;30.55;;;13.90;;
30553;SDS011;17335;50.720;7.452;2023-02-15T16:19:49;31.48;;;14.23;;
30553;SDS011;17335;50.720;7.452;2023-02-15T16:22:24;32.38;;;14.65;;
30553;SDS011;17335;50.720;7.452;2023-02-15T16:27:46;29.88;;;12.70;;
30553;SDS011;17335;50.720;7.452;2023-02-15T16:30:17;31.90;;;12.88;;
30553;SDS011;17335;50.720;7.452;2023-02-15T16:32:47;28.58;;;12.32;;
30553;SDS011;17335;50.720;7.452;2023-02-15T16:35:15;25.23;;;12.32;;
30553;SDS011;17335;50.720;7.452;2023-02-15T16:37:43;30.95;;;13.80;;
30553;SDS011;17335;50.720;7.452;2023-02-15T16:40:35;32.88;;;13.43;;
30553;SDS011;17335;50.720;7.452;2023-02-15T16:45:38;34.78;;;14.05;;
30553;SDS011;17335;50.720;7.452;2023-02-15T16:48:07;29.45;;;12.75;;
30553;SDS011;17335;50.720;7.452;2023-02-15T16:53:14;52.08;;;25.95;;
30553;SDS011;17335;50.720;7.452;2023-02-15T16:55:47;34.22;;;16.05;;
30553;SDS011;17335;50.720;7.452;2023-02-15T16:58:17;32.47;;;13.75;;
30553;SDS011;17335;50.720;7.452;2023-02-15T17:00:52;34.42;;;13.55;;
30553;SDS011;17335;50.720;7.452;2023-02-15T17:03:23;39.33;;;15.40;;
30553;SDS011;17335;50.720;7.452;2023-02-15T17:05:51;40.25;;;16.25;;
30553;SDS011;17335;50.720;7.452;2023-02-15T17:08:30;35.72;;;15.57;;
30553;SDS011;17335;50.720;7.452;2023-02-15T17:13:25;36.17;;;14.55;;
30553;SDS011;17335;50.720;7.452;2023-02-15T17:18:27;30.08;;;14.88;;
30553;SDS011;17335;50.720;7.452;2023-02-15T17:21:10;32.13;;;13.20;;
30553;SDS011;17335;50.720;7.452;2023-02-15T17:23:46;33.50;;;16.17;;
30553;SDS011;17335;50.720;7.452;2023-02-15T17:26:15;33.10;;;15.13;;
30553;SDS011;17335;50.720;7.452;2023-02-15T17:28:48;33.00;;;16.25;;
30553;SDS011;17335;50.720;7.452;2023-02-15T17:31:18;41.80;;;19.05;;
30553;SDS011;17335;50.720;7.452;2023-02-15T17:33:46;32.85;;;16.05;;
30553;SDS011;17335;50.720;7.452;2023-02-15T17:36:14;35.25;;;14.90;;
30553;SDS011;17335;50.720;7.452;2023-02-15T17:41:28;28.92;;;13.88;;
30553;SDS011;17335;50.720;7.452;2023-02-15T17:43:56;34.67;;;13.48;;
30553;SDS011;17335;50.720;7.452;2023-02-15T17:46:22;31.75;;;12.98;;
30553;SDS011;17335;50.720;7.452;2023-02-15T17:48:51;33.03;;;13.32;;
30553;SDS011;17335;50.720;7.452;2023-02-15T17:51:20;29.63;;;12.18;;
30553;SDS011;17335;50.720;7.452;2023-02-15T17:53:47;26.48;;;12.30;;
30553;SDS011;17335;50.720;7.452;2023-02-15T17:56:33;31.63;;;12.98;;
30553;SDS011;17335;50.720;7.452;2023-02-15T17:59:01;31.42;;;13.43;;
30553;SDS011;17335;50.720;7.452;2023-02-15T18:01:33;27.33;;;12.40;;
30553;SDS011;17335;50.720;7.452;2023-02-15T18:04:20;33.20;;;13.27;;
30553;SDS011;17335;50.720;7.452;2023-02-15T18:07:08;29.83;;;13.13;;
30553;SDS011;17335;50.720;7.452;2023-02-15T18:09:56;35.50;;;13.18;;
30553;SDS011;17335;50.720;7.452;2023-02-15T18:12:41;33.55;;;15.45;;
30553;SDS011;17335;50.720;7.452;2023-02-15T18:15:07;31.27;;;13.60;;
30553;SDS011;17335;50.720;7.452;2023-02-15T18:17:38;30.90;;;12.85;;
30553;SDS011;17335;50.720;7.452;2023-02-15T18:22:50;36.17;;;13.95;;
30553;SDS011;17335;50.720;7.452;2023-02-15T18:25:17;31.50;;;13.48;;
30553;SDS011;17335;50.720;7.452;2023-02-15T18:27:45;36.70;;;15.18;;